Terminal Aerodrome Forecast
Issued by NWS Cleveland, OH

Home | Current Version | Previous Version | Text Only | Print | Product List | Glossary Off
Versions: 1 2 3 4 5 6 7 8 9 10 11 12 13 14 15 16 17 18

000
FTUS41 KCLE 300500 RRA
TAFMFD
TAF
KMFD 300541Z 3006/3106 30012G20KT 5SM BR BKN008 OVC015
      TEMPO 3007/3010 3SM -SHSN OVC008
     FM301300 31012G20KT P6SM SCT008 OVC015
     FM302200 31007KT P6SM SCT025 BKN250
     FM310000 VRB03KT P6SM BKN250=

USA.gov is the U.S. government's official web portal to all federal, state and local government web resources and services.